Broadus, MT

12:34 PM MST on February 06, 2016 (GMT -0700)
Belle Creek | | Change Station
CLOSE
Current Station
Personal Weather Station
Location: Broadus, MT
Elevation: 3576 ft
Nearby Weather Stations
Active Advisory: High Wind Warning

Elev 3576 ft 45.16 °N, 105.13 °W | Updated 6 minutes ago

Clear
Clear
47.7 °F
Feels Like 46 °F
N
4.2
Wind Variable Wind from WSW

Today
High -- | Low -- °F
--% Chance of Precip.
Yesterday
High -- | Low -- °F
Precip. -- in
Pressure 29.92 in
Visibility 10.0 miles
Clouds Clear
Windchill 46 °F
Dew Point 28 °F
Humidity 46%
Rainfall 0.00 in
Snow Depth Not available.
7:16 AM 5:15 PM
Waning Crescent, 4% visible
METAR KW43 061915Z AUTO 21012KT 10SM CLR 05/M04 A2992 RMK AO2
Pressure 29.92 in
Visibility 10.0 miles
Clouds Clear
Windchill 46 °F
Dew Point 28 °F
Humidity 46%
Rainfall 0.00 in
Snow Depth Not available.
7:16 AM 5:15 PM
Waning Crescent, 4% visible
METAR KW43 061915Z AUTO 21012KT 10SM CLR 05/M04 A2992 RMK AO2

10-Day Weather Forecast

Almanac

Astronomy

Feb. 06, 2016 Rise Set
Actual Time
Civil Twilight
Nautical Twilight
Astronomical Twilight
Moon
Length of Visible Light
Length of Day
Tomorrow will be .
, % of the Moon is Illuminated

Today's Extremes

State Highs State Lows

Community

WunderPhotos

Upload Photos

1,891,037 photos uploaded!

WunderBlog® & News

Nearby

Air Quality

  Air Quality AQ Index Pollutant
Not available.

Snow Depth

Station Depth Elevation

Earthquake Activity

City Distance Mag. Time & Date
Minimum magnitude displayed is 2.5.

Coastal Water Temperatures

Place Temperature

Stations

Nearby Weather Stations

Station Location Temp. Windchill Dew Point Humidity Wind Precip. Elev Updated Type
                   

Watches & Warnings

High Wind Warning
Issued: 9:25 AM MST Feb. 6, 2016 – National Weather Service

... High Wind Warning remains in effect from 2 PM this afternoon
to 8 PM MST Sunday...

* impacts... dangerous cross winds could make travel hazardous
for high profile and Load carrying vehicles.

* Timing... west to northwest winds will increase late today
behind a cold front. Winds may diminish somewhat overnight
before increasing again Sunday. Winds are expected to decrease
Sunday evening.

* Winds... peak gusts from 55 to 65 mph are expected.

Precautionary/preparedness actions...

Winds of these magnitudes can cause property damage without extra
precautions. Motorists in high profile vehicles should use
caution until the winds subside.